Date,TemperatureHighF,TemperatureAvgF,TemperatureLowF,DewpointHighF,DewpointAvgF,DewpointLowF,HumidityHigh,HumidityAvg,HumidityLow,PressureMaxIn,PressureMinIn,WindSpeedMaxMPH,WindSpeedAvgMPH,GustSpeedMaxMPH,PrecipitationSumIn
2013-1-1,20,6,-8,17,1,-12,87,82,67,30.41,30.15,11,1,11,0.00
2013-1-2,20,17,14,18,14,12,91,88,83,30.17,30.05,5,1,9,0.00
2013-1-3,21,15,9,18,10,5,90,82,69,30.36,30.17,9,2,9,0.00
2013-1-4,31,21,14,20,15,11,91,78,62,30.21,30.11,12,1,12,0.00
2013-1-5,27,17,8,18,13,6,93,82,65,30.18,29.94,7,1,7,0.00
2013-1-6,25,17,9,15,11,5,90,79,62,30.32,30.10,9,1,9,0.00
2013-1-7,38,29,14,27,23,11,94,78,63,30.13,29.97,15,2,15,0.04
2013-1-8,34,27,15,30,23,13,94,87,75,30.05,29.83,12,1,12,0.00
2013-1-9,35,30,22,28,24,19,90,77,61,30.42,29.98,18,2,18,0.00
2013-1-10,42,32,23,34,26,20,95,79,49,30.38,29.80,9,1,9,0.31
2013-1-11,41,37,34,40,36,33,98,97,95,29.80,29.41,9,1,9,0.04
2013-1-12,39,16,5,38,10,-1,97,77,68,30.17,29.42,24,4,24,0.00
2013-1-13,11,6,3,4,0,-2,85,78,72,30.37,30.15,9,1,9,0.00
2013-1-14,15,8,3,6,3,0,88,79,61,30.53,30.37,12,1,12,0.00
2013-1-15,28,15,8,18,11,5,91,84,60,30.40,29.93,14,1,14,0.00
2013-1-16,37,27,14,33,20,2,92,75,52,30.30,29.73,21,2,21,0.01
2013-1-17,21,13,5,11,4,-3,79,67,57,30.49,30.30,11,1,11,0.00
2013-1-18,42,30,17,32,24,11,90,79,64,30.40,29.80,13,1,13,0.00
2013-1-19,40,24,3,33,18,-4,96,79,58,30.31,29.73,22,3,22,0.00
2013-1-20,11,4,-2,2,-4,-10,80,68,55,30.51,30.31,14,2,14,0.00
2013-1-21,-2,-6,-10,-10,-13,-18,77,68,59,30.49,30.40,14,2,14,0.00
2013-1-22,5,-3,-11,-2,-10,-17,76,69,58,30.56,30.38,7,1,7,0.00
2013-1-23,19,8,-4,11,-1,-15,86,67,52,30.74,30.27,17,2,17,0.00
2013-1-24,14,3,-6,4,-7,-16,67,62,53,30.81,30.30,10,1,10,0.00
2013-1-25,20,14,4,13,6,-2,80,69,59,30.41,30.05,18,3,18,0.00
2013-1-26,24,13,0,13,5,-5,86,69,54,30.46,30.22,9,1,9,0.00
2013-1-27,33,30,22,30,24,13,95,79,61,30.22,29.86,9,1,9,0.01
2013-1-28,36,32,30,34,31,29,97,95,93,29.96,29.69,7,0,7,0.18
2013-1-29,37,33,28,33,30,23,97,90,81,29.80,29.57,11,1,11,0.19
2013-1-30,28,18,9,23,12,3,82,77,72,29.84,29.69,13,3,13,0.00
2013-1-31,9,2,-8,3,-4,-15,81,73,67,30.40,29.85,10,3,17,0.00